Akane — H3UD — position and weather

sailwx.info

Track history (hours):
 
Tides and Currents Weather Stations Pressure Air Temp Water Temp Dewpoint Dewpoint Depression Visibility Wind Speed Wind Dir Waves Ship Positions

Akane

Last reported at 2018-May-12 13:19 UTC. Time now 2018-May-24 06:26 UTC.
Position N 41°20' E 139°06'.
Warning: this ship's position is 11 days out of date.

Length 180 m; draft 8 m.

Type: Tanker. MMSI: 353172000.

Date/timePositionNaut miles runAvg speedWind from/ knotsBaromVisibWave heightAir tempDewpointWater temp
2018-May-12 13:19N 41°20' E 139°06'1213.5
2018-May-12 12:26N 41°18' E 139°21'1013.1
2018-May-12 11:39N 41°16' E 139°35'413.1
2018-May-12 11:21N 41°15' E 139°40'2611.8
2018-May-12 09:08N 41°19' E 140°14'110.2
2018-May-12 08:59N 41°20' E 140°16'5 9.6
2018-May-12 08:29N 41°23' E 140°21'5 9.9
2018-May-12 07:57N 41°26' E 140°27'4 9.3
2018-May-12 07:30N 41°28' E 140°32'5 9.9
2018-May-12 07:00N 41°31' E 140°37'5 9.4
2018-May-12 06:30N 41°33' E 140°43'5 9.4
2018-May-12 06:00N 41°36' E 140°48'4 8.8
2018-May-12 05:30N 41°38' E 140°53'4 8.7
2018-May-12 05:00N 41°39' E 140°59'4 8.3
2018-May-12 04:30N 41°39' E 141°04'510.4
2018-May-12 04:00N 41°41' E 141°10'612.7
2018-May-12 03:30N 41°45' E 141°17'612.1
2018-May-12 03:00N 41°51' E 141°18'2 0.1
2018-May-10 21:19N 41°53' E 141°19'413.1
2018-May-10 21:00N 41°50' E 141°23'712.9
2018-May-10 20:27N 41°45' E 141°30'611.5
2018-May-10 19:58N 41°41' E 141°35'  
2018-May-07 21:06N 41°36' E 141°26'215.2
2018-May-07 21:00N 41°37' E 141°24'714.2
2018-May-07 20:29N 41°38' E 141°14'612.9
2018-May-07 20:00N 41°38' E 141°06'715.0
2018-May-07 19:30N 41°38' E 140°56'714.8
2018-May-07 19:00N 41°34' E 140°47'815.9
2018-May-07 18:30N 41°30' E 140°39'816.7
2018-May-07 18:00N 41°26' E 140°29'815.9
2018-May-07 17:29N 41°21' E 140°20'2413.1
2018-May-07 15:40N 41°15' E 139°49'313.1
2018-May-07 15:28N 41°15' E 139°46'613.2
2018-May-07 15:00N 41°17' E 139°38'713.3
2018-May-07 14:30N 41°18' E 139°29'713.3
2018-May-07 13:59N 41°20' E 139°21'612.9
2018-May-07 13:30N 41°22' E 139°13'813.4
2018-May-07 12:52N 41°24' E 139°02'513.0
2018-May-07 12:28N 41°25' E 138°55'  
Track history (hours):
 
Tides and Currents Weather Stations Pressure Air Temp Water Temp Dewpoint Dewpoint Depression Visibility Wind Speed Wind Dir Waves Ship Positions

Akane

Last reported at 2018-May-12 13:19 UTC. Time now 2018-May-24 06:26 UTC.
Position N 41°20' E 139°06'.
Warning: this ship's position is 11 days out of date.

Length 180 m; draft 8 m.

Type: Tanker. MMSI: 353172000.

Date/timePositionNaut miles runAvg speedWind from/ knotsBaromVisibWave heightAir tempDewpointWater temp
2018-May-12 13:19N 41°20' E 139°06'1213.5
2018-May-12 12:26N 41°18' E 139°21'1013.1
2018-May-12 11:39N 41°16' E 139°35'413.1
2018-May-12 11:21N 41°15' E 139°40'2611.8
2018-May-12 09:08N 41°19' E 140°14'110.2
2018-May-12 08:59N 41°20' E 140°16'5 9.6
2018-May-12 08:29N 41°23' E 140°21'5 9.9
2018-May-12 07:57N 41°26' E 140°27'4 9.3
2018-May-12 07:30N 41°28' E 140°32'5 9.9
2018-May-12 07:00N 41°31' E 140°37'5 9.4
2018-May-12 06:30N 41°33' E 140°43'5 9.4
2018-May-12 06:00N 41°36' E 140°48'4 8.8
2018-May-12 05:30N 41°38' E 140°53'4 8.7
2018-May-12 05:00N 41°39' E 140°59'4 8.3
2018-May-12 04:30N 41°39' E 141°04'510.4
2018-May-12 04:00N 41°41' E 141°10'612.7
2018-May-12 03:30N 41°45' E 141°17'612.1
2018-May-12 03:00N 41°51' E 141°18'2 0.1
2018-May-10 21:19N 41°53' E 141°19'413.1
2018-May-10 21:00N 41°50' E 141°23'712.9
2018-May-10 20:27N 41°45' E 141°30'611.5
2018-May-10 19:58N 41°41' E 141°35'  
2018-May-07 21:06N 41°36' E 141°26'215.2
2018-May-07 21:00N 41°37' E 141°24'714.2
2018-May-07 20:29N 41°38' E 141°14'612.9
2018-May-07 20:00N 41°38' E 141°06'715.0
2018-May-07 19:30N 41°38' E 140°56'714.8
2018-May-07 19:00N 41°34' E 140°47'815.9
2018-May-07 18:30N 41°30' E 140°39'816.7
2018-May-07 18:00N 41°26' E 140°29'815.9
2018-May-07 17:29N 41°21' E 140°20'2413.1
2018-May-07 15:40N 41°15' E 139°49'313.1
2018-May-07 15:28N 41°15' E 139°46'613.2
2018-May-07 15:00N 41°17' E 139°38'713.3
2018-May-07 14:30N 41°18' E 139°29'713.3
2018-May-07 13:59N 41°20' E 139°21'612.9
2018-May-07 13:30N 41°22' E 139°13'813.4
2018-May-07 12:52N 41°24' E 139°02'513.0
2018-May-07 12:28N 41°25' E 138°55'  

Dump ship's entire track history